sensor_id;sensor_type;location;lat;lon;timestamp;P1;durP1;ratioP1;P2;durP2;ratioP2
2710;SDS011;20721;47.402;8.550;2023-07-24T00:01:31;8.07;;;7.95;;
2710;SDS011;20721;47.402;8.550;2023-07-24T00:03:31;9.03;;;8.81;;
2710;SDS011;20721;47.402;8.550;2023-07-24T00:05:31;9.07;;;8.77;;
2710;SDS011;20721;47.402;8.550;2023-07-24T00:07:31;9.13;;;8.92;;
2710;SDS011;20721;47.402;8.550;2023-07-24T00:09:31;9.21;;;8.98;;
2710;SDS011;20721;47.402;8.550;2023-07-24T00:11:31;8.53;;;8.39;;
2710;SDS011;20721;47.402;8.550;2023-07-24T00:13:31;8.87;;;8.77;;
2710;SDS011;20721;47.402;8.550;2023-07-24T00:15:31;8.24;;;8.11;;
2710;SDS011;20721;47.402;8.550;2023-07-24T00:17:31;8.54;;;8.43;;
2710;SDS011;20721;47.402;8.550;2023-07-24T00:19:31;9.48;;;9.34;;
2710;SDS011;20721;47.402;8.550;2023-07-24T00:21:31;8.83;;;8.69;;
2710;SDS011;20721;47.402;8.550;2023-07-24T00:23:31;8.13;;;8.12;;
2710;SDS011;20721;47.402;8.550;2023-07-24T00:26:31;7.34;;;7.32;;
2710;SDS011;20721;47.402;8.550;2023-07-24T00:28:31;7.78;;;7.71;;
2710;SDS011;20721;47.402;8.550;2023-07-24T00:32:31;8.36;;;8.27;;
2710;SDS011;20721;47.402;8.550;2023-07-24T00:37:31;8.47;;;8.31;;
2710;SDS011;20721;47.402;8.550;2023-07-24T00:39:31;8.23;;;8.08;;
2710;SDS011;20721;47.402;8.550;2023-07-24T00:41:31;8.23;;;8.15;;
2710;SDS011;20721;47.402;8.550;2023-07-24T00:43:31;9.18;;;8.95;;
2710;SDS011;20721;47.402;8.550;2023-07-24T00:45:32;8.83;;;8.67;;
2710;SDS011;20721;47.402;8.550;2023-07-24T00:47:31;9.40;;;9.14;;
2710;SDS011;20721;47.402;8.550;2023-07-24T00:49:31;8.85;;;8.56;;
2710;SDS011;20721;47.402;8.550;2023-07-24T00:51:31;8.87;;;8.54;;
2710;SDS011;20721;47.402;8.550;2023-07-24T00:53:31;9.99;;;9.79;;
2710;SDS011;20721;47.402;8.550;2023-07-24T00:55:31;13.75;;;13.05;;
2710;SDS011;20721;47.402;8.550;2023-07-24T00:57:31;14.61;;;13.85;;
2710;SDS011;20721;47.402;8.550;2023-07-24T00:59:31;17.44;;;16.74;;
2710;SDS011;20721;47.402;8.550;2023-07-24T01:01:32;15.71;;;15.11;;
2710;SDS011;20721;47.402;8.550;2023-07-24T01:03:34;25.27;;;24.69;;
2710;SDS011;20721;47.402;8.550;2023-07-24T01:05:32;17.72;;;16.97;;
2710;SDS011;20721;47.402;8.550;2023-07-24T01:07:31;10.94;;;10.55;;
2710;SDS011;20721;47.402;8.550;2023-07-24T01:09:31;9.41;;;9.12;;
2710;SDS011;20721;47.402;8.550;2023-07-24T01:11:40;9.43;;;9.20;;
2710;SDS011;20721;47.402;8.550;2023-07-24T01:13:36;17.71;;;16.54;;
2710;SDS011;20721;47.402;8.550;2023-07-24T01:15:44;12.01;;;11.51;;
2710;SDS011;20721;47.402;8.550;2023-07-24T01:17:34;13.46;;;13.05;;
2710;SDS011;20721;47.402;8.550;2023-07-24T01:19:47;8.57;;;8.32;;
2710;SDS011;20721;47.402;8.550;2023-07-24T01:21:44;8.22;;;8.15;;
2710;SDS011;20721;47.402;8.550;2023-07-24T01:23:37;9.29;;;9.18;;
2710;SDS011;20721;47.402;8.550;2023-07-24T01:27:34;14.71;;;14.22;;
2710;SDS011;20721;47.402;8.550;2023-07-24T01:29:31;11.85;;;11.61;;
2710;SDS011;20721;47.402;8.550;2023-07-24T01:31:31;11.35;;;11.15;;
2710;SDS011;20721;47.402;8.550;2023-07-24T01:33:31;11.09;;;10.99;;
2710;SDS011;20721;47.402;8.550;2023-07-24T01:35:31;11.74;;;11.44;;
2710;SDS011;20721;47.402;8.550;2023-07-24T01:37:32;11.74;;;11.38;;
2710;SDS011;20721;47.402;8.550;2023-07-24T01:39:31;10.63;;;10.48;;
2710;SDS011;20721;47.402;8.550;2023-07-24T01:41:31;9.34;;;9.26;;
2710;SDS011;20721;47.402;8.550;2023-07-24T01:43:31;9.89;;;9.73;;
2710;SDS011;20721;47.402;8.550;2023-07-24T01:45:31;9.75;;;9.53;;
2710;SDS011;20721;47.402;8.550;2023-07-24T01:47:32;11.20;;;11.02;;
2710;SDS011;20721;47.402;8.550;2023-07-24T01:49:31;9.79;;;9.63;;
2710;SDS011;20721;47.402;8.550;2023-07-24T01:51:31;9.57;;;9.48;;
2710;SDS011;20721;47.402;8.550;2023-07-24T01:53:31;10.35;;;10.18;;
2710;SDS011;20721;47.402;8.550;2023-07-24T01:55:31;10.64;;;10.49;;
2710;SDS011;20721;47.402;8.550;2023-07-24T01:57:31;10.30;;;9.97;;
2710;SDS011;20721;47.402;8.550;2023-07-24T01:59:31;10.12;;;9.80;;
2710;SDS011;20721;47.402;8.550;2023-07-24T02:01:31;10.29;;;9.99;;
2710;SDS011;20721;47.402;8.550;2023-07-24T02:03:31;10.80;;;10.64;;
2710;SDS011;20721;47.402;8.550;2023-07-24T02:05:31;10.48;;;10.30;;
2710;SDS011;20721;47.402;8.550;2023-07-24T02:07:31;10.49;;;10.41;;
2710;SDS011;20721;47.402;8.550;2023-07-24T02:11:31;9.09;;;9.02;;
2710;SDS011;20721;47.402;8.550;2023-07-24T02:13:31;10.24;;;10.06;;
2710;SDS011;20721;47.402;8.550;2023-07-24T02:16:31;9.89;;;9.75;;
2710;SDS011;20721;47.402;8.550;2023-07-24T02:21:31;9.97;;;9.76;;
2710;SDS011;20721;47.402;8.550;2023-07-24T02:23:31;9.19;;;9.02;;
2710;SDS011;20721;47.402;8.550;2023-07-24T02:25:31;8.71;;;8.59;;
2710;SDS011;20721;47.402;8.550;2023-07-24T02:27:35;8.89;;;8.80;;
2710;SDS011;20721;47.402;8.550;2023-07-24T02:29:32;9.02;;;8.89;;
2710;SDS011;20721;47.402;8.550;2023-07-24T02:32:32;9.63;;;9.48;;
2710;SDS011;20721;47.402;8.550;2023-07-24T02:34:35;9.97;;;9.82;;
2710;SDS011;20721;47.402;8.550;2023-07-24T02:36:31;10.00;;;9.78;;
2710;SDS011;20721;47.402;8.550;2023-07-24T02:38:31;9.55;;;9.42;;
2710;SDS011;20721;47.402;8.550;2023-07-24T02:40:31;9.95;;;9.59;;
2710;SDS011;20721;47.402;8.550;2023-07-24T02:43:31;8.81;;;8.69;;
2710;SDS011;20721;47.402;8.550;2023-07-24T02:45:33;9.96;;;9.71;;
2710;SDS011;20721;47.402;8.550;2023-07-24T02:47:31;9.79;;;9.55;;
2710;SDS011;20721;47.402;8.550;2023-07-24T02:49:31;8.51;;;8.45;;
2710;SDS011;20721;47.402;8.550;2023-07-24T02:51:31;8.99;;;8.83;;
2710;SDS011;20721;47.402;8.550;2023-07-24T02:53:31;8.71;;;8.57;;
2710;SDS011;20721;47.402;8.550;2023-07-24T02:55:31;9.74;;;9.57;;
2710;SDS011;20721;47.402;8.550;2023-07-24T02:57:31;8.57;;;8.48;;
2710;SDS011;20721;47.402;8.550;2023-07-24T02:59:31;8.42;;;8.30;;
2710;SDS011;20721;47.402;8.550;2023-07-24T03:01:31;8.82;;;8.74;;
2710;SDS011;20721;47.402;8.550;2023-07-24T03:03:32;9.71;;;9.43;;
2710;SDS011;20721;47.402;8.550;2023-07-24T03:05:31;8.59;;;8.45;;
2710;SDS011;20721;47.402;8.550;2023-07-24T03:07:31;9.53;;;9.37;;
2710;SDS011;20721;47.402;8.550;2023-07-24T03:09:31;8.74;;;8.66;;
2710;SDS011;20721;47.402;8.550;2023-07-24T03:12:31;8.86;;;8.76;;
2710;SDS011;20721;47.402;8.550;2023-07-24T03:14:31;9.09;;;8.95;;
2710;SDS011;20721;47.402;8.550;2023-07-24T03:16:31;9.52;;;9.38;;
2710;SDS011;20721;47.402;8.550;2023-07-24T03:18:31;9.24;;;9.13;;
2710;SDS011;20721;47.402;8.550;2023-07-24T03:20:31;8.88;;;8.69;;
2710;SDS011;20721;47.402;8.550;2023-07-24T03:22:31;9.59;;;9.54;;
2710;SDS011;20721;47.402;8.550;2023-07-24T03:24:31;9.57;;;9.57;;
2710;SDS011;20721;47.402;8.550;2023-07-24T03:26:31;8.97;;;8.93;;
2710;SDS011;20721;47.402;8.550;2023-07-24T03:28:31;9.70;;;9.57;;
2710;SDS011;20721;47.402;8.550;2023-07-24T03:30:31;8.95;;;8.85;;
2710;SDS011;20721;47.402;8.550;2023-07-24T03:32:31;10.09;;;10.03;;
2710;SDS011;20721;47.402;8.550;2023-07-24T03:34:31;9.26;;;9.16;;
2710;SDS011;20721;47.402;8.550;2023-07-24T03:36:34;9.34;;;9.20;;
2710;SDS011;20721;47.402;8.550;2023-07-24T03:38:31;10.12;;;9.84;;
2710;SDS011;20721;47.402;8.550;2023-07-24T03:40:31;10.63;;;10.36;;
2710;SDS011;20721;47.402;8.550;2023-07-24T03:42:36;9.33;;;9.14;;
2710;SDS011;20721;47.402;8.550;2023-07-24T03:44:31;8.90;;;8.79;;
2710;SDS011;20721;47.402;8.550;2023-07-24T03:46:32;9.22;;;9.13;;
2710;SDS011;20721;47.402;8.550;2023-07-24T03:48:31;9.51;;;9.42;;
2710;SDS011;20721;47.402;8.550;2023-07-24T03:50:31;9.02;;;8.85;;
2710;SDS011;20721;47.402;8.550;2023-07-24T03:52:31;9.99;;;9.64;;
2710;SDS011;20721;47.402;8.550;2023-07-24T03:54:31;9.54;;;9.31;;
2710;SDS011;20721;47.402;8.550;2023-07-24T03:56:31;9.50;;;9.34;;
2710;SDS011;20721;47.402;8.550;2023-07-24T03:58:31;8.77;;;8.67;;
2710;SDS011;20721;47.402;8.550;2023-07-24T04:00:31;9.02;;;8.92;;
2710;SDS011;20721;47.402;8.550;2023-07-24T04:02:31;9.98;;;9.77;;
2710;SDS011;20721;47.402;8.550;2023-07-24T04:04:31;8.58;;;8.41;;
2710;SDS011;20721;47.402;8.550;2023-07-24T04:06:31;9.17;;;8.99;;
2710;SDS011;20721;47.402;8.550;2023-07-24T04:08:31;9.32;;;9.21;;
2710;SDS011;20721;47.402;8.550;2023-07-24T04:11:31;9.74;;;9.55;;
2710;SDS011;20721;47.402;8.550;2023-07-24T04:14:31;10.10;;;9.94;;
2710;SDS011;20721;47.402;8.550;2023-07-24T04:16:31;9.82;;;9.68;;
2710;SDS011;20721;47.402;8.550;2023-07-24T04:19:31;9.60;;;9.47;;
2710;SDS011;20721;47.402;8.550;2023-07-24T04:21:32;9.48;;;9.31;;
2710;SDS011;20721;47.402;8.550;2023-07-24T04:24:31;9.82;;;9.58;;
2710;SDS011;20721;47.402;8.550;2023-07-24T04:26:31;9.20;;;9.06;;
2710;SDS011;20721;47.402;8.550;2023-07-24T04:28:31;9.87;;;9.64;;
2710;SDS011;20721;47.402;8.550;2023-07-24T04:30:32;9.60;;;9.43;;
2710;SDS011;20721;47.402;8.550;2023-07-24T04:32:31;9.92;;;9.76;;
2710;SDS011;20721;47.402;8.550;2023-07-24T04:34:31;9.88;;;9.82;;
2710;SDS011;20721;47.402;8.550;2023-07-24T04:36:31;8.93;;;8.93;;
2710;SDS011;20721;47.402;8.550;2023-07-24T04:38:32;8.91;;;8.82;;
2710;SDS011;20721;47.402;8.550;2023-07-24T04:41:31;10.24;;;10.05;;
2710;SDS011;20721;47.402;8.550;2023-07-24T04:43:31;10.23;;;10.04;;
2710;SDS011;20721;47.402;8.550;2023-07-24T04:45:34;12.12;;;11.67;;
2710;SDS011;20721;47.402;8.550;2023-07-24T04:47:31;11.08;;;10.63;;
2710;SDS011;20721;47.402;8.550;2023-07-24T04:49:31;9.45;;;9.08;;
2710;SDS011;20721;47.402;8.550;2023-07-24T04:51:31;9.62;;;9.33;;
2710;SDS011;20721;47.402;8.550;2023-07-24T04:53:32;10.02;;;9.67;;
2710;SDS011;20721;47.402;8.550;2023-07-24T04:55:32;9.65;;;9.46;;
2710;SDS011;20721;47.402;8.550;2023-07-24T04:57:31;8.89;;;8.71;;
2710;SDS011;20721;47.402;8.550;2023-07-24T04:59:31;8.21;;;8.03;;
2710;SDS011;20721;47.402;8.550;2023-07-24T05:01:31;8.87;;;8.66;;
2710;SDS011;20721;47.402;8.550;2023-07-24T05:03:32;9.11;;;8.95;;
2710;SDS011;20721;47.402;8.550;2023-07-24T05:05:31;8.04;;;7.98;;
2710;SDS011;20721;47.402;8.550;2023-07-24T05:09:31;7.22;;;7.06;;
2710;SDS011;20721;47.402;8.550;2023-07-24T05:11:31;6.54;;;6.40;;
2710;SDS011;20721;47.402;8.550;2023-07-24T05:13:32;6.81;;;6.57;;
2710;SDS011;20721;47.402;8.550;2023-07-24T05:15:32;7.32;;;7.11;;
2710;SDS011;20721;47.402;8.550;2023-07-24T05:17:31;7.21;;;7.04;;
2710;SDS011;20721;47.402;8.550;2023-07-24T05:19:31;6.99;;;6.88;;
2710;SDS011;20721;47.402;8.550;2023-07-24T05:21:31;7.12;;;7.03;;
2710;SDS011;20721;47.402;8.550;2023-07-24T05:23:31;7.25;;;7.10;;
2710;SDS011;20721;47.402;8.550;2023-07-24T05:25:31;7.34;;;7.26;;
2710;SDS011;20721;47.402;8.550;2023-07-24T05:27:31;7.50;;;7.38;;
2710;SDS011;20721;47.402;8.550;2023-07-24T05:29:32;7.71;;;7.64;;
2710;SDS011;20721;47.402;8.550;2023-07-24T05:31:33;7.52;;;7.44;;
2710;SDS011;20721;47.402;8.550;2023-07-24T05:33:32;6.94;;;6.94;;
2710;SDS011;20721;47.402;8.550;2023-07-24T05:35:31;5.71;;;5.70;;
2710;SDS011;20721;47.402;8.550;2023-07-24T05:37:31;5.43;;;5.39;;
2710;SDS011;20721;47.402;8.550;2023-07-24T05:39:32;4.77;;;4.72;;
2710;SDS011;20721;47.402;8.550;2023-07-24T05:41:32;5.37;;;5.33;;
2710;SDS011;20721;47.402;8.550;2023-07-24T05:43:32;4.75;;;4.73;;
2710;SDS011;20721;47.402;8.550;2023-07-24T05:45:32;5.75;;;5.71;;
2710;SDS011;20721;47.402;8.550;2023-07-24T05:47:32;5.65;;;5.59;;
2710;SDS011;20721;47.402;8.550;2023-07-24T05:49:32;5.85;;;5.76;;
2710;SDS011;20721;47.402;8.550;2023-07-24T05:51:32;6.41;;;6.33;;
2710;SDS011;20721;47.402;8.550;2023-07-24T05:53:32;6.21;;;6.15;;
2710;SDS011;20721;47.402;8.550;2023-07-24T05:55:32;6.26;;;6.23;;
2710;SDS011;20721;47.402;8.550;2023-07-24T05:57:32;6.20;;;6.14;;
2710;SDS011;20721;47.402;8.550;2023-07-24T05:59:32;6.60;;;6.48;;
2710;SDS011;20721;47.402;8.550;2023-07-24T06:01:32;5.59;;;5.57;;
2710;SDS011;20721;47.402;8.550;2023-07-24T06:03:32;5.32;;;5.29;;
2710;SDS011;20721;47.402;8.550;2023-07-24T06:05:32;5.46;;;5.40;;
2710;SDS011;20721;47.402;8.550;2023-07-24T06:07:32;5.39;;;5.34;;
2710;SDS011;20721;47.402;8.550;2023-07-24T06:09:32;5.71;;;5.67;;
2710;SDS011;20721;47.402;8.550;2023-07-24T06:11:33;5.72;;;5.68;;
2710;SDS011;20721;47.402;8.550;2023-07-24T06:13:32;6.08;;;6.05;;
2710;SDS011;20721;47.402;8.550;2023-07-24T06:15:32;5.51;;;5.44;;
2710;SDS011;20721;47.402;8.550;2023-07-24T06:17:32;5.23;;;5.13;;
2710;SDS011;20721;47.402;8.550;2023-07-24T06:19:32;5.28;;;5.26;;
2710;SDS011;20721;47.402;8.550;2023-07-24T06:21:32;5.00;;;4.99;;
2710;SDS011;20721;47.402;8.550;2023-07-24T06:23:32;6.13;;;6.06;;
2710;SDS011;20721;47.402;8.550;2023-07-24T06:25:32;5.22;;;5.11;;
2710;SDS011;20721;47.402;8.550;2023-07-24T06:27:32;5.35;;;5.25;;
2710;SDS011;20721;47.402;8.550;2023-07-24T06:29:32;6.05;;;5.97;;
2710;SDS011;20721;47.402;8.550;2023-07-24T06:31:32;6.48;;;6.39;;
2710;SDS011;20721;47.402;8.550;2023-07-24T06:33:32;5.85;;;5.81;;
2710;SDS011;20721;47.402;8.550;2023-07-24T06:36:32;5.28;;;5.20;;
2710;SDS011;20721;47.402;8.550;2023-07-24T06:38:32;5.98;;;5.90;;
2710;SDS011;20721;47.402;8.550;2023-07-24T06:40:32;6.32;;;6.28;;
2710;SDS011;20721;47.402;8.550;2023-07-24T06:42:32;5.23;;;5.16;;
2710;SDS011;20721;47.402;8.550;2023-07-24T06:44:32;6.33;;;6.26;;
2710;SDS011;20721;47.402;8.550;2023-07-24T06:46:32;5.46;;;5.43;;
2710;SDS011;20721;47.402;8.550;2023-07-24T06:48:32;5.57;;;5.52;;
2710;SDS011;20721;47.402;8.550;2023-07-24T06:50:32;5.54;;;5.51;;
2710;SDS011;20721;47.402;8.550;2023-07-24T06:52:32;5.47;;;5.41;;
2710;SDS011;20721;47.402;8.550;2023-07-24T06:54:32;6.61;;;6.56;;
2710;SDS011;20721;47.402;8.550;2023-07-24T06:56:32;6.07;;;6.03;;
2710;SDS011;20721;47.402;8.550;2023-07-24T06:58:32;6.27;;;6.18;;
2710;SDS011;20721;47.402;8.550;2023-07-24T07:00:32;5.60;;;5.53;;
2710;SDS011;20721;47.402;8.550;2023-07-24T07:02:32;5.96;;;5.91;;
2710;SDS011;20721;47.402;8.550;2023-07-24T07:04:32;6.12;;;6.08;;
2710;SDS011;20721;47.402;8.550;2023-07-24T07:06:35;6.12;;;6.08;;
2710;SDS011;20721;47.402;8.550;2023-07-24T07:08:32;6.27;;;6.22;;
2710;SDS011;20721;47.402;8.550;2023-07-24T07:10:32;6.29;;;6.24;;
2710;SDS011;20721;47.402;8.550;2023-07-24T07:12:32;6.48;;;6.48;;
2710;SDS011;20721;47.402;8.550;2023-07-24T07:14:32;6.41;;;6.41;;
2710;SDS011;20721;47.402;8.550;2023-07-24T07:16:32;6.12;;;6.08;;
2710;SDS011;20721;47.402;8.550;2023-07-24T07:18:32;5.81;;;5.80;;
2710;SDS011;20721;47.402;8.550;2023-07-24T07:20:32;6.06;;;6.06;;
2710;SDS011;20721;47.402;8.550;2023-07-24T07:22:32;6.26;;;6.20;;
2710;SDS011;20721;47.402;8.550;2023-07-24T07:24:32;6.22;;;6.18;;
2710;SDS011;20721;47.402;8.550;2023-07-24T07:26:32;6.26;;;6.22;;
2710;SDS011;20721;47.402;8.550;2023-07-24T07:28:32;6.20;;;6.19;;
2710;SDS011;20721;47.402;8.550;2023-07-24T07:30:32;6.51;;;6.49;;
2710;SDS011;20721;47.402;8.550;2023-07-24T07:32:32;6.16;;;6.06;;
2710;SDS011;20721;47.402;8.550;2023-07-24T07:34:32;6.25;;;6.17;;
2710;SDS011;20721;47.402;8.550;2023-07-24T07:36:32;6.39;;;6.39;;
2710;SDS011;20721;47.402;8.550;2023-07-24T07:38:32;5.79;;;5.78;;
2710;SDS011;20721;47.402;8.550;2023-07-24T07:40:33;5.76;;;5.74;;
2710;SDS011;20721;47.402;8.550;2023-07-24T07:42:32;6.69;;;6.67;;
2710;SDS011;20721;47.402;8.550;2023-07-24T07:44:32;5.86;;;5.82;;
2710;SDS011;20721;47.402;8.550;2023-07-24T07:46:32;4.83;;;4.78;;
2710;SDS011;20721;47.402;8.550;2023-07-24T07:48:32;6.03;;;6.03;;
2710;SDS011;20721;47.402;8.550;2023-07-24T07:50:32;5.96;;;5.93;;
2710;SDS011;20721;47.402;8.550;2023-07-24T07:52:32;6.00;;;5.98;;
2710;SDS011;20721;47.402;8.550;2023-07-24T07:54:32;6.06;;;6.03;;
2710;SDS011;20721;47.402;8.550;2023-07-24T07:56:32;6.63;;;6.59;;
2710;SDS011;20721;47.402;8.550;2023-07-24T07:58:32;6.08;;;6.04;;
2710;SDS011;20721;47.402;8.550;2023-07-24T08:00:32;6.44;;;6.35;;
2710;SDS011;20721;47.402;8.550;2023-07-24T08:02:32;6.70;;;6.65;;
2710;SDS011;20721;47.402;8.550;2023-07-24T08:04:32;6.94;;;6.86;;
2710;SDS011;20721;47.402;8.550;2023-07-24T08:06:32;6.83;;;6.83;;
2710;SDS011;20721;47.402;8.550;2023-07-24T08:08:32;6.92;;;6.92;;
2710;SDS011;20721;47.402;8.550;2023-07-24T08:10:32;7.21;;;7.21;;
2710;SDS011;20721;47.402;8.550;2023-07-24T08:12:32;7.54;;;7.50;;
2710;SDS011;20721;47.402;8.550;2023-07-24T08:14:32;7.04;;;6.90;;
2710;SDS011;20721;47.402;8.550;2023-07-24T08:16:32;6.96;;;6.86;;
2710;SDS011;20721;47.402;8.550;2023-07-24T08:18:32;7.18;;;7.10;;
2710;SDS011;20721;47.402;8.550;2023-07-24T08:20:32;6.32;;;6.26;;
2710;SDS011;20721;47.402;8.550;2023-07-24T08:22:32;6.22;;;6.16;;
2710;SDS011;20721;47.402;8.550;2023-07-24T08:24:34;6.35;;;6.31;;
2710;SDS011;20721;47.402;8.550;2023-07-24T08:26:34;6.76;;;6.66;;
2710;SDS011;20721;47.402;8.550;2023-07-24T08:28:32;6.61;;;6.50;;
2710;SDS011;20721;47.402;8.550;2023-07-24T08:30:33;6.68;;;6.61;;
2710;SDS011;20721;47.402;8.550;2023-07-24T08:32:32;6.88;;;6.82;;
2710;SDS011;20721;47.402;8.550;2023-07-24T08:34:32;6.32;;;6.27;;
2710;SDS011;20721;47.402;8.550;2023-07-24T08:36:32;6.36;;;6.30;;
2710;SDS011;20721;47.402;8.550;2023-07-24T08:38:35;6.90;;;6.87;;
2710;SDS011;20721;47.402;8.550;2023-07-24T08:40:32;6.31;;;6.28;;
2710;SDS011;20721;47.402;8.550;2023-07-24T08:42:32;7.00;;;6.94;;
2710;SDS011;20721;47.402;8.550;2023-07-24T08:44:35;6.32;;;6.28;;
2710;SDS011;20721;47.402;8.550;2023-07-24T08:46:36;5.95;;;5.86;;
2710;SDS011;20721;47.402;8.550;2023-07-24T08:48:33;6.97;;;6.87;;
2710;SDS011;20721;47.402;8.550;2023-07-24T08:50:33;6.29;;;6.21;;
2710;SDS011;20721;47.402;8.550;2023-07-24T08:52:42;7.06;;;6.98;;
2710;SDS011;20721;47.402;8.550;2023-07-24T08:54:32;7.20;;;7.15;;
2710;SDS011;20721;47.402;8.550;2023-07-24T08:56:32;6.57;;;6.47;;
2710;SDS011;20721;47.402;8.550;2023-07-24T08:58:33;6.74;;;6.71;;
2710;SDS011;20721;47.402;8.550;2023-07-24T09:00:32;6.83;;;6.76;;
2710;SDS011;20721;47.402;8.550;2023-07-24T09:02:33;5.58;;;5.54;;
2710;SDS011;20721;47.402;8.550;2023-07-24T09:04:32;6.35;;;6.33;;
2710;SDS011;20721;47.402;8.550;2023-07-24T09:06:32;6.98;;;6.94;;
2710;SDS011;20721;47.402;8.550;2023-07-24T09:08:40;5.94;;;5.94;;
2710;SDS011;20721;47.402;8.550;2023-07-24T09:10:36;6.67;;;6.67;;
2710;SDS011;20721;47.402;8.550;2023-07-24T09:12:33;6.66;;;6.64;;
2710;SDS011;20721;47.402;8.550;2023-07-24T09:14:33;6.67;;;6.64;;
2710;SDS011;20721;47.402;8.550;2023-07-24T09:16:34;6.69;;;6.63;;
2710;SDS011;20721;47.402;8.550;2023-07-24T09:18:40;6.62;;;6.62;;
2710;SDS011;20721;47.402;8.550;2023-07-24T09:20:47;6.42;;;6.42;;
2710;SDS011;20721;47.402;8.550;2023-07-24T09:22:33;6.78;;;6.78;;
2710;SDS011;20721;47.402;8.550;2023-07-24T09:24:32;7.19;;;7.17;;
2710;SDS011;20721;47.402;8.550;2023-07-24T09:26:32;6.53;;;6.51;;
2710;SDS011;20721;47.402;8.550;2023-07-24T09:28:32;6.63;;;6.57;;
2710;SDS011;20721;47.402;8.550;2023-07-24T09:30:33;7.13;;;7.05;;
2710;SDS011;20721;47.402;8.550;2023-07-24T09:32:33;6.76;;;6.68;;
2710;SDS011;20721;47.402;8.550;2023-07-24T09:34:32;7.25;;;7.20;;
2710;SDS011;20721;47.402;8.550;2023-07-24T09:36:39;7.21;;;7.16;;
2710;SDS011;20721;47.402;8.550;2023-07-24T09:38:32;7.38;;;7.38;;
2710;SDS011;20721;47.402;8.550;2023-07-24T09:40:40;7.42;;;7.42;;
2710;SDS011;20721;47.402;8.550;2023-07-24T09:42:40;6.63;;;6.57;;
2710;SDS011;20721;47.402;8.550;2023-07-24T09:44:35;6.88;;;6.88;;
2710;SDS011;20721;47.402;8.550;2023-07-24T09:46:40;6.83;;;6.72;;
2710;SDS011;20721;47.402;8.550;2023-07-24T09:48:43;8.25;;;8.18;;
2710;SDS011;20721;47.402;8.550;2023-07-24T09:50:32;6.92;;;6.90;;
2710;SDS011;20721;47.402;8.550;2023-07-24T09:52:34;7.18;;;7.11;;
2710;SDS011;20721;47.402;8.550;2023-07-24T09:54:37;7.75;;;7.69;;
2710;SDS011;20721;47.402;8.550;2023-07-24T09:56:44;7.04;;;7.01;;
2710;SDS011;20721;47.402;8.550;2023-07-24T09:58:33;7.72;;;7.65;;
2710;SDS011;20721;47.402;8.550;2023-07-24T10:01:33;7.44;;;7.33;;
2710;SDS011;20721;47.402;8.550;2023-07-24T10:03:34;6.67;;;6.64;;
2710;SDS011;20721;47.402;8.550;2023-07-24T10:05:32;7.47;;;7.39;;
2710;SDS011;20721;47.402;8.550;2023-07-24T10:07:33;6.67;;;6.67;;
2710;SDS011;20721;47.402;8.550;2023-07-24T10:09:34;7.84;;;7.81;;
2710;SDS011;20721;47.402;8.550;2023-07-24T10:11:33;7.20;;;7.20;;
2710;SDS011;20721;47.402;8.550;2023-07-24T10:13:32;7.40;;;7.36;;
2710;SDS011;20721;47.402;8.550;2023-07-24T10:15:32;7.54;;;7.54;;
2710;SDS011;20721;47.402;8.550;2023-07-24T10:17:48;7.39;;;7.37;;
2710;SDS011;20721;47.402;8.550;2023-07-24T10:19:36;8.10;;;8.08;;
2710;SDS011;20721;47.402;8.550;2023-07-24T10:21:36;7.93;;;7.85;;
2710;SDS011;20721;47.402;8.550;2023-07-24T10:23:34;7.40;;;7.34;;
2710;SDS011;20721;47.402;8.550;2023-07-24T10:25:39;6.17;;;6.16;;
2710;SDS011;20721;47.402;8.550;2023-07-24T10:27:35;6.85;;;6.82;;
2710;SDS011;20721;47.402;8.550;2023-07-24T10:29:34;7.48;;;7.41;;
2710;SDS011;20721;47.402;8.550;2023-07-24T10:31:34;8.03;;;8.03;;
2710;SDS011;20721;47.402;8.550;2023-07-24T10:33:33;6.94;;;6.94;;
2710;SDS011;20721;47.402;8.550;2023-07-24T10:37:41;7.33;;;7.33;;
2710;SDS011;20721;47.402;8.550;2023-07-24T10:39:37;6.62;;;6.61;;
2710;SDS011;20721;47.402;8.550;2023-07-24T10:41:34;6.85;;;6.84;;
2710;SDS011;20721;47.402;8.550;2023-07-24T10:43:40;6.54;;;6.54;;
2710;SDS011;20721;47.402;8.550;2023-07-24T10:47:33;6.96;;;6.96;;
2710;SDS011;20721;47.402;8.550;2023-07-24T10:49:33;5.91;;;5.91;;
2710;SDS011;20721;47.402;8.550;2023-07-24T10:51:32;5.86;;;5.86;;
2710;SDS011;20721;47.402;8.550;2023-07-24T10:54:32;6.04;;;5.98;;
2710;SDS011;20721;47.402;8.550;2023-07-24T10:57:36;6.16;;;6.07;;
2710;SDS011;20721;47.402;8.550;2023-07-24T10:59:36;6.55;;;6.47;;
2710;SDS011;20721;47.402;8.550;2023-07-24T11:01:33;6.00;;;6.00;;
2710;SDS011;20721;47.402;8.550;2023-07-24T11:03:37;6.75;;;6.75;;
2710;SDS011;20721;47.402;8.550;2023-07-24T11:05:33;6.34;;;6.33;;
2710;SDS011;20721;47.402;8.550;2023-07-24T11:07:32;5.58;;;5.55;;
2710;SDS011;20721;47.402;8.550;2023-07-24T11:09:34;2.72;;;2.67;;
2710;SDS011;20721;47.402;8.550;2023-07-24T11:11:41;2.28;;;2.20;;
2710;SDS011;20721;47.402;8.550;2023-07-24T11:13:33;2.48;;;2.38;;
2710;SDS011;20721;47.402;8.550;2023-07-24T11:15:35;1.45;;;1.38;;
2710;SDS011;20721;47.402;8.550;2023-07-24T11:17:42;1.18;;;1.12;;
2710;SDS011;20721;47.402;8.550;2023-07-24T11:19:34;1.18;;;1.13;;
2710;SDS011;20721;47.402;8.550;2023-07-24T11:21:33;1.41;;;1.35;;
2710;SDS011;20721;47.402;8.550;2023-07-24T11:23:33;2.41;;;2.34;;
2710;SDS011;20721;47.402;8.550;2023-07-24T11:25:32;2.56;;;2.53;;
2710;SDS011;20721;47.402;8.550;2023-07-24T11:27:42;2.81;;;2.78;;
2710;SDS011;20721;47.402;8.550;2023-07-24T11:29:33;2.75;;;2.73;;
2710;SDS011;20721;47.402;8.550;2023-07-24T11:31:36;2.81;;;2.78;;
2710;SDS011;20721;47.402;8.550;2023-07-24T11:33:33;2.36;;;2.35;;
2710;SDS011;20721;47.402;8.550;2023-07-24T11:35:33;2.61;;;2.58;;
2710;SDS011;20721;47.402;8.550;2023-07-24T11:37:33;2.46;;;2.46;;
2710;SDS011;20721;47.402;8.550;2023-07-24T11:39:33;2.93;;;2.91;;
2710;SDS011;20721;47.402;8.550;2023-07-24T11:41:33;2.58;;;2.56;;
2710;SDS011;20721;47.402;8.550;2023-07-24T11:43:34;2.06;;;2.04;;
2710;SDS011;20721;47.402;8.550;2023-07-24T11:45:49;2.23;;;2.21;;
2710;SDS011;20721;47.402;8.550;2023-07-24T11:48:34;2.27;;;2.24;;
2710;SDS011;20721;47.402;8.550;2023-07-24T11:50:41;2.22;;;2.20;;
2710;SDS011;20721;47.402;8.550;2023-07-24T11:52:49;2.18;;;2.16;;
2710;SDS011;20721;47.402;8.550;2023-07-24T11:54:34;2.52;;;2.49;;
2710;SDS011;20721;47.402;8.550;2023-07-24T11:56:33;2.26;;;2.24;;
2710;SDS011;20721;47.402;8.550;2023-07-24T11:58:35;1.86;;;1.84;;
2710;SDS011;20721;47.402;8.550;2023-07-24T12:00:33;2.25;;;2.25;;
2710;SDS011;20721;47.402;8.550;2023-07-24T12:02:41;1.81;;;1.80;;
2710;SDS011;20721;47.402;8.550;2023-07-24T12:04:33;2.38;;;2.37;;
2710;SDS011;20721;47.402;8.550;2023-07-24T12:06:34;1.82;;;1.82;;
2710;SDS011;20721;47.402;8.550;2023-07-24T12:08:41;2.66;;;2.65;;
2710;SDS011;20721;47.402;8.550;2023-07-24T12:10:37;1.98;;;1.97;;
2710;SDS011;20721;47.402;8.550;2023-07-24T12:12:48;1.99;;;1.98;;
2710;SDS011;20721;47.402;8.550;2023-07-24T12:14:32;2.43;;;2.40;;
2710;SDS011;20721;47.402;8.550;2023-07-24T12:16:34;1.92;;;1.89;;
2710;SDS011;20721;47.402;8.550;2023-07-24T12:18:33;2.56;;;2.54;;
2710;SDS011;20721;47.402;8.550;2023-07-24T12:20:33;2.02;;;2.01;;
2710;SDS011;20721;47.402;8.550;2023-07-24T12:22:33;2.12;;;2.12;;
2710;SDS011;20721;47.402;8.550;2023-07-24T12:24:33;2.72;;;2.71;;
2710;SDS011;20721;47.402;8.550;2023-07-24T12:26:35;2.27;;;2.26;;
2710;SDS011;20721;47.402;8.550;2023-07-24T12:29:33;2.98;;;2.97;;
2710;SDS011;20721;47.402;8.550;2023-07-24T12:31:33;2.18;;;2.17;;
2710;SDS011;20721;47.402;8.550;2023-07-24T12:33:33;2.54;;;2.54;;
2710;SDS011;20721;47.402;8.550;2023-07-24T12:35:33;2.69;;;2.67;;
2710;SDS011;20721;47.402;8.550;2023-07-24T12:37:33;2.63;;;2.62;;
2710;SDS011;20721;47.402;8.550;2023-07-24T12:39:33;2.66;;;2.66;;
2710;SDS011;20721;47.402;8.550;2023-07-24T12:41:33;2.81;;;2.80;;
2710;SDS011;20721;47.402;8.550;2023-07-24T12:43:33;2.51;;;2.49;;
2710;SDS011;20721;47.402;8.550;2023-07-24T12:45:33;2.60;;;2.58;;